createdAt,value
2018-09-01T00:01:10.575Z,12.30
2018-09-01T00:03:39.995Z,12.30
2018-09-01T00:06:09.942Z,12.30
2018-09-01T00:08:39.068Z,12.20
2018-09-01T00:11:08.287Z,12.20
2018-09-01T00:13:37.719Z,12.20
2018-09-01T00:16:07.310Z,12.20
2018-09-01T00:18:37.110Z,12.30
2018-09-01T00:21:06.344Z,12.30
2018-09-01T00:23:36.140Z,12.20
2018-09-01T00:26:05.469Z,12.20
2018-09-01T00:28:34.654Z,12.20
2018-09-01T00:31:03.823Z,12.00
2018-09-01T00:33:33.084Z,12.20
2018-09-01T00:36:02.431Z,12.10
2018-09-01T00:38:36.883Z,12.10
2018-09-01T00:41:06.103Z,12.00
2018-09-01T00:43:35.378Z,12.10
2018-09-01T00:46:04.960Z,12.20
2018-09-01T00:48:34.256Z,12.20
2018-09-01T00:51:03.708Z,12.20
2018-09-01T00:53:32.739Z,12.20
2018-09-01T00:56:02.234Z,12.20
2018-09-01T00:58:31.767Z,12.20
2018-09-01T01:01:01.040Z,12.10
2018-09-01T01:03:30.450Z,11.90
2018-09-01T01:05:59.912Z,12.00
2018-09-01T01:08:29.067Z,12.00
2018-09-01T01:10:58.515Z,12.00
2018-09-01T01:13:27.773Z,12.10
2018-09-01T01:15:56.963Z,12.10
2018-09-01T01:18:26.219Z,12.00
2018-09-01T01:20:55.371Z,12.00
2018-09-01T01:23:24.854Z,12.00
2018-09-01T01:25:54.071Z,12.10
2018-09-01T01:28:23.645Z,12.00
2018-09-01T01:30:52.784Z,12.10
2018-09-01T01:33:21.963Z,12.10
2018-09-01T01:35:51.117Z,12.20
2018-09-01T01:38:20.776Z,12.20
2018-09-01T01:40:50.271Z,12.30
2018-09-01T01:43:19.547Z,12.30
2018-09-01T01:45:49.121Z,12.30
2018-09-01T01:48:18.249Z,12.30
2018-09-01T01:50:47.688Z,12.40
2018-09-01T01:53:17.119Z,12.40
2018-09-01T01:55:46.338Z,12.40
2018-09-01T01:58:15.571Z,12.40
2018-09-01T02:00:45.013Z,12.40
2018-09-01T02:03:14.203Z,12.40
2018-09-01T02:05:43.475Z,12.30
2018-09-01T02:08:12.720Z,12.40
2018-09-01T02:10:41.815Z,12.40
2018-09-01T02:13:11.357Z,12.40
2018-09-01T02:15:40.874Z,12.40
2018-09-01T02:18:11.786Z,12.50
2018-09-01T02:20:41.300Z,12.40
2018-09-01T02:23:10.460Z,12.30
2018-09-01T02:25:39.696Z,12.50
2018-09-01T02:28:08.916Z,12.50
2018-09-01T02:30:38.161Z,12.50
2018-09-01T02:33:07.461Z,12.50
2018-09-01T02:35:36.627Z,12.40
2018-09-01T02:38:06.132Z,12.50
2018-09-01T02:40:35.295Z,12.50
2018-09-01T02:43:04.484Z,12.40
2018-09-01T02:45:33.783Z,12.50
2018-09-01T02:48:02.995Z,12.50
2018-09-01T02:50:32.279Z,12.50
2018-09-01T02:53:01.922Z,12.60
2018-09-01T02:55:31.463Z,12.80
2018-09-01T02:58:00.584Z,12.70
2018-09-01T03:00:35.731Z,12.80
2018-09-01T03:03:05.132Z,12.90
2018-09-01T03:05:34.481Z,12.90
2018-09-01T03:08:04.120Z,12.90
2018-09-01T03:10:33.468Z,12.70
2018-09-01T03:13:03.017Z,12.70
2018-09-01T03:15:32.302Z,12.80
2018-09-01T03:18:01.579Z,12.80
2018-09-01T03:20:31.010Z,12.80
2018-09-01T03:23:00.349Z,12.80
2018-09-01T03:25:29.545Z,12.80
2018-09-01T03:27:58.655Z,12.70
2018-09-01T03:30:27.887Z,12.70
2018-09-01T03:32:57.156Z,12.70
2018-09-01T03:35:26.579Z,12.70
2018-09-01T03:37:55.815Z,12.80
2018-09-01T03:40:25.063Z,12.80
2018-09-01T03:42:54.487Z,12.90
2018-09-01T03:45:23.561Z,12.90
2018-09-01T03:47:53.636Z,12.80
2018-09-01T03:50:22.744Z,13.00
2018-09-01T03:52:52.140Z,13.00
2018-09-01T03:55:21.483Z,13.00
2018-09-01T03:57:50.961Z,13.10
2018-09-01T04:00:20.390Z,12.90
2018-09-01T04:02:49.581Z,12.90
2018-09-01T04:05:18.840Z,12.90
2018-09-01T04:07:48.144Z,12.90
2018-09-01T04:10:17.319Z,13.00
2018-09-01T04:12:53.248Z,13.10
2018-09-01T04:15:22.343Z,13.10
2018-09-01T04:17:51.412Z,13.10
2018-09-01T04:20:20.627Z,13.20
2018-09-01T04:22:49.871Z,13.20
2018-09-01T04:25:19.138Z,13.20
2018-09-01T04:27:48.495Z,13.20
2018-09-01T04:30:17.820Z,13.20
2018-09-01T04:32:47.067Z,13.20
2018-09-01T04:35:16.440Z,13.30
2018-09-01T04:37:45.743Z,13.40
2018-09-01T04:40:15.164Z,13.30
2018-09-01T04:42:44.681Z,13.40
2018-09-01T04:45:14.261Z,13.40
2018-09-01T04:47:43.681Z,13.50
2018-09-01T04:50:12.858Z,13.50
2018-09-01T04:52:42.127Z,13.70
2018-09-01T04:55:11.437Z,13.80
2018-09-01T04:57:40.389Z,13.90
2018-09-01T05:00:10.046Z,14.00
2018-09-01T05:02:39.345Z,14.10
2018-09-01T05:05:08.714Z,14.20
2018-09-01T05:07:38.013Z,14.40
2018-09-01T05:10:07.019Z,14.40
2018-09-01T05:12:36.691Z,14.50
2018-09-01T05:15:05.820Z,14.60
2018-09-01T05:17:35.106Z,14.60
2018-09-01T05:20:04.647Z,14.70
2018-09-01T05:22:33.900Z,14.80
2018-09-01T05:25:08.872Z,14.90
2018-09-01T05:27:38.343Z,14.80
2018-09-01T05:30:08.443Z,14.80
2018-09-01T05:32:37.735Z,14.90
2018-09-01T05:35:07.011Z,15.00
2018-09-01T05:37:36.274Z,15.10
2018-09-01T05:40:05.627Z,15.10
2018-09-01T05:42:34.572Z,15.20
2018-09-01T05:45:03.716Z,15.20
2018-09-01T05:47:33.178Z,15.30
2018-09-01T05:50:02.822Z,15.40
2018-09-01T05:52:32.080Z,15.40
2018-09-01T05:55:01.506Z,15.60
2018-09-01T05:57:30.752Z,15.60
2018-09-01T06:00:00.144Z,15.60
2018-09-01T06:02:29.691Z,15.70
2018-09-01T06:04:58.813Z,15.80
2018-09-01T06:07:28.104Z,15.90
2018-09-01T06:09:57.186Z,16.00
2018-09-01T06:12:26.636Z,16.10
2018-09-01T06:14:55.994Z,16.20
2018-09-01T06:17:25.152Z,16.30
2018-09-01T06:19:55.095Z,16.50
2018-09-01T06:22:24.431Z,16.50
2018-09-01T06:24:53.864Z,16.60
2018-09-01T06:27:28.119Z,16.60
2018-09-01T06:29:57.571Z,16.70
2018-09-01T06:32:27.297Z,16.70
2018-09-01T06:34:56.453Z,16.90
2018-09-01T06:37:25.771Z,17.00
2018-09-01T06:39:55.132Z,17.10
2018-09-01T06:42:24.452Z,17.20
2018-09-01T06:44:53.979Z,17.30
2018-09-01T06:47:23.469Z,17.20
2018-09-01T06:49:52.705Z,17.30
2018-09-01T06:52:22.011Z,17.60
2018-09-01T06:54:51.445Z,17.70
2018-09-01T06:57:20.840Z,17.80
2018-09-01T06:59:49.913Z,17.90
2018-09-01T07:02:19.267Z,18.10
2018-09-01T07:04:48.461Z,18.30
2018-09-01T07:07:17.927Z,18.30
2018-09-01T07:09:47.261Z,18.40
2018-09-01T07:12:16.455Z,18.50
2018-09-01T07:14:45.686Z,18.60
2018-09-01T07:17:14.940Z,18.70
2018-09-01T07:19:44.412Z,18.80
2018-09-01T07:22:14.073Z,19.00
2018-09-01T07:24:43.463Z,19.00
2018-09-01T07:27:12.740Z,19.10
2018-09-01T07:29:42.300Z,19.30
2018-09-01T07:32:11.841Z,19.20
2018-09-01T07:34:41.217Z,19.20
2018-09-01T07:37:10.855Z,19.40
2018-09-01T07:39:40.031Z,19.60
2018-09-01T07:42:09.211Z,19.80
2018-09-01T07:44:39.385Z,20.00
2018-09-01T07:47:08.780Z,20.00
2018-09-01T07:49:38.203Z,19.90
2018-09-01T07:52:08.026Z,20.10
2018-09-01T07:54:37.425Z,20.40
2018-09-01T07:57:07.188Z,20.30
2018-09-01T07:59:36.536Z,20.40
2018-09-01T08:02:05.798Z,20.30
2018-09-01T08:04:35.167Z,20.50
2018-09-01T08:07:04.594Z,20.50
2018-09-01T08:09:33.795Z,20.80
2018-09-01T08:12:03.297Z,21.00
2018-09-01T08:14:32.608Z,21.10
2018-09-01T08:17:02.105Z,21.30
2018-09-01T08:19:31.369Z,21.50
2018-09-01T08:22:00.595Z,21.40
2018-09-01T08:24:30.224Z,21.60
2018-09-01T08:26:59.277Z,21.90
2018-09-01T08:29:28.803Z,22.00
2018-09-01T08:31:57.888Z,22.30
2018-09-01T08:34:27.165Z,21.70
2018-09-01T08:36:56.403Z,22.10
2018-09-01T08:39:25.810Z,22.20
2018-09-01T08:41:55.348Z,22.10
2018-09-01T08:44:24.937Z,22.50
2018-09-01T08:46:54.271Z,22.60
2018-09-01T08:49:23.447Z,22.90
2018-09-01T08:51:53.139Z,23.20
2018-09-01T08:54:23.680Z,23.00
2018-09-01T08:56:54.241Z,23.30
2018-09-01T08:59:25.289Z,23.10
2018-09-01T09:01:54.727Z,23.30
2018-09-01T09:04:24.038Z,23.50
2018-09-01T09:06:53.583Z,23.40
2018-09-01T09:09:25.346Z,23.10
2018-09-01T09:11:54.841Z,23.30
2018-09-01T09:14:25.130Z,23.20
2018-09-01T09:17:00.099Z,23.40
2018-09-01T09:19:34.737Z,23.70
2018-09-01T09:22:04.151Z,23.80
2018-09-01T09:24:33.636Z,24.00
2018-09-01T09:27:02.766Z,23.50
2018-09-01T09:29:32.104Z,23.80
2018-09-01T09:32:01.421Z,23.40
2018-09-01T09:34:30.653Z,23.60
2018-09-01T09:36:59.950Z,23.60
2018-09-01T09:39:29.039Z,23.20
2018-09-01T09:42:00.532Z,23.40
2018-09-01T09:44:30.313Z,23.70
2018-09-01T09:47:00.982Z,23.90
2018-09-01T09:49:32.189Z,24.30
2018-09-01T09:52:02.304Z,24.30
2018-09-01T09:54:31.999Z,24.70
2018-09-01T09:57:02.640Z,24.60
2018-09-01T09:59:32.083Z,24.40
2018-09-01T10:02:02.862Z,23.90
2018-09-01T10:04:33.071Z,24.50
2018-09-01T10:07:04.115Z,24.90
2018-09-01T10:09:34.610Z,23.80
2018-09-01T10:12:07.115Z,24.10
2018-09-01T10:14:36.657Z,24.30
2018-09-01T10:17:05.949Z,23.90
2018-09-01T10:19:36.295Z,23.80
2018-09-01T10:22:07.336Z,24.30
2018-09-01T10:24:36.714Z,24.10
2018-09-01T10:27:07.384Z,24.30
2018-09-01T10:29:37.249Z,24.40
2018-09-01T10:32:07.166Z,23.90
2018-09-01T10:34:37.072Z,24.40
2018-09-01T10:37:06.453Z,24.40
2018-09-01T10:39:35.900Z,24.70
2018-09-01T10:42:05.300Z,25.30
2018-09-01T10:44:35.059Z,25.90
2018-09-01T10:47:04.305Z,26.00
2018-09-01T10:49:33.669Z,25.60
2018-09-01T10:52:03.401Z,25.90
2018-09-01T10:54:32.846Z,25.70
2018-09-01T10:57:03.060Z,25.60
2018-09-01T10:59:36.832Z,24.60
2018-09-01T11:02:06.574Z,24.00
2018-09-01T11:04:36.074Z,24.00
2018-09-01T11:07:05.459Z,24.10
2018-09-01T11:09:34.946Z,24.60
2018-09-01T11:12:05.667Z,24.80
2018-09-01T11:14:35.035Z,24.50
2018-09-01T11:17:05.025Z,25.10
2018-09-01T11:19:34.401Z,25.10
2018-09-01T11:22:05.524Z,24.70
2018-09-01T11:24:36.338Z,24.70
2018-09-01T11:27:07.294Z,25.00
2018-09-01T11:29:37.250Z,24.60
2018-09-01T11:32:07.557Z,24.10
2018-09-01T11:34:37.148Z,24.80
2018-09-01T11:37:06.364Z,24.60
2018-09-01T11:39:36.778Z,24.40
2018-09-01T11:42:15.806Z,24.90
2018-09-01T11:44:47.043Z,25.50
2018-09-01T11:47:17.012Z,25.20
2018-09-01T11:49:51.057Z,24.80
2018-09-01T11:52:27.416Z,25.60
2018-09-01T11:55:02.793Z,24.90
2018-09-01T11:57:37.673Z,24.90
2018-09-01T12:00:16.586Z,25.30
2018-09-01T12:02:49.002Z,25.40
2018-09-01T12:05:18.953Z,25.10
2018-09-01T12:07:48.660Z,25.10
2018-09-01T12:10:18.541Z,25.30
2018-09-01T12:12:48.210Z,25.20
2018-09-01T12:15:17.347Z,25.30
2018-09-01T12:17:46.674Z,25.40
2018-09-01T12:20:16.112Z,25.70
2018-09-01T12:22:48.181Z,26.10
2018-09-01T12:25:18.261Z,26.00
2018-09-01T12:27:47.756Z,26.00
2018-09-01T12:30:17.233Z,25.10
2018-09-01T12:32:46.295Z,25.70
2018-09-01T12:35:15.900Z,25.40
2018-09-01T12:37:47.569Z,26.20
2018-09-01T12:40:19.599Z,26.60
2018-09-01T12:42:52.633Z,26.70
2018-09-01T12:45:26.778Z,26.30
2018-09-01T12:47:57.746Z,26.60
2018-09-01T12:50:29.527Z,26.10
2018-09-01T12:53:01.163Z,26.30
2018-09-01T12:55:41.716Z,26.60
2018-09-01T12:58:14.765Z,26.20
2018-09-01T13:00:44.092Z,25.60
2018-09-01T13:03:15.276Z,25.80
2018-09-01T13:05:49.992Z,25.40
2018-09-01T13:08:19.308Z,25.90
2018-09-01T13:10:48.628Z,26.30
2018-09-01T13:13:18.256Z,26.30
2018-09-01T13:15:54.270Z,26.00
2018-09-01T13:18:26.191Z,25.60
2018-09-01T13:20:55.692Z,25.90
2018-09-01T13:23:25.727Z,25.60
2018-09-01T13:25:56.131Z,25.40
2018-09-01T13:28:25.863Z,26.00
2018-09-01T13:30:55.307Z,25.30
2018-09-01T13:33:24.793Z,25.40
2018-09-01T13:35:56.755Z,24.70
2018-09-01T13:38:35.225Z,25.00
2018-09-01T13:41:04.782Z,25.10
2018-09-01T13:43:34.749Z,25.20
2018-09-01T13:46:06.210Z,25.30
2018-09-01T13:48:35.732Z,25.10
2018-09-01T13:51:05.812Z,25.00
2018-09-01T13:53:35.624Z,25.10
2018-09-01T13:56:05.529Z,25.10
2018-09-01T13:58:35.397Z,25.10
2018-09-01T14:01:04.852Z,24.90
2018-09-01T14:03:34.034Z,24.90
2018-09-01T14:06:03.978Z,25.00
2018-09-01T14:08:34.329Z,24.80
2018-09-01T14:11:09.482Z,24.60
2018-09-01T14:13:38.689Z,24.90
2018-09-01T14:16:07.987Z,25.20
2018-09-01T14:18:37.210Z,25.30
2018-09-01T14:21:08.601Z,24.80
2018-09-01T14:23:38.360Z,24.60
2018-09-01T14:26:09.238Z,24.60
2018-09-01T14:28:41.202Z,24.40
2018-09-01T14:31:11.245Z,24.30
2018-09-01T14:33:40.809Z,24.40
2018-09-01T14:36:17.920Z,24.30
2018-09-01T14:38:47.317Z,24.40
2018-09-01T14:41:16.422Z,24.30
2018-09-01T14:43:45.693Z,24.70
2018-09-01T14:46:15.732Z,24.70
2018-09-01T14:48:48.138Z,24.40
2018-09-01T14:51:17.388Z,24.30
2018-09-01T14:53:48.515Z,24.00
2018-09-01T14:56:17.973Z,23.80
2018-09-01T14:58:47.455Z,23.60
2018-09-01T15:01:16.961Z,23.50
2018-09-01T15:03:48.872Z,23.40
2018-09-01T15:06:19.858Z,23.20
2018-09-01T15:08:52.454Z,23.10
2018-09-01T15:11:22.390Z,23.10
2018-09-01T15:13:52.306Z,23.10
2018-09-01T15:16:25.275Z,23.00
2018-09-01T15:18:55.996Z,22.90
2018-09-01T15:21:25.289Z,22.90
2018-09-01T15:23:55.440Z,22.90
2018-09-01T15:26:25.207Z,22.80
2018-09-01T15:29:01.507Z,22.80
2018-09-01T15:31:31.587Z,22.80
2018-09-01T15:34:01.055Z,22.80
2018-09-01T15:36:30.760Z,22.70
2018-09-01T15:39:00.252Z,22.70
2018-09-01T15:41:29.928Z,22.80
2018-09-01T15:43:59.660Z,23.00
2018-09-01T15:46:29.100Z,23.10
2018-09-01T15:49:01.470Z,23.10
2018-09-01T15:51:31.034Z,23.00
2018-09-01T15:54:00.247Z,22.90
2018-09-01T15:56:29.727Z,22.90
2018-09-01T15:58:58.947Z,22.90
2018-09-01T16:01:28.819Z,22.80
2018-09-01T16:03:57.948Z,22.70
2018-09-01T16:06:27.537Z,22.60
2018-09-01T16:08:56.772Z,22.60
2018-09-01T16:11:26.706Z,22.60
2018-09-01T16:13:56.442Z,22.50
2018-09-01T16:16:25.475Z,22.50
2018-09-01T16:18:54.843Z,22.40
2018-09-01T16:21:23.962Z,22.40
2018-09-01T16:23:53.308Z,22.20
2018-09-01T16:26:22.420Z,22.30
2018-09-01T16:28:51.764Z,22.10
2018-09-01T16:31:21.296Z,22.20
2018-09-01T16:33:50.529Z,22.10
2018-09-01T16:36:20.065Z,22.00
2018-09-01T16:38:49.013Z,22.00
2018-09-01T16:41:18.364Z,22.00
2018-09-01T16:43:47.801Z,21.80
2018-09-01T16:46:19.128Z,21.80
2018-09-01T16:48:48.673Z,21.70
2018-09-01T16:51:17.808Z,21.60
2018-09-01T16:53:47.365Z,21.50
2018-09-01T16:56:16.604Z,21.30
2018-09-01T16:58:45.894Z,21.10
2018-09-01T17:01:15.248Z,20.90
2018-09-01T17:03:45.065Z,20.80
2018-09-01T17:06:14.641Z,20.70
2018-09-01T17:08:43.906Z,20.60
2018-09-01T17:11:13.969Z,20.60
2018-09-01T17:13:43.404Z,20.60
2018-09-01T17:16:12.536Z,20.40
2018-09-01T17:18:42.195Z,20.40
2018-09-01T17:21:11.755Z,20.20
2018-09-01T17:23:40.867Z,20.20
2018-09-01T17:26:10.248Z,20.20
2018-09-01T17:28:39.784Z,20.00
2018-09-01T17:31:09.365Z,19.90
2018-09-01T17:33:39.157Z,19.80
2018-09-01T17:36:08.648Z,19.60
2018-09-01T17:38:37.802Z,19.60
2018-09-01T17:41:07.232Z,19.50
2018-09-01T17:43:36.670Z,19.30
2018-09-01T17:46:06.225Z,19.30
2018-09-01T17:48:35.747Z,19.30
2018-09-01T17:51:04.788Z,19.10
2018-09-01T17:53:34.053Z,19.10
2018-09-01T17:56:03.445Z,19.10
2018-09-01T17:58:32.659Z,19.10
2018-09-01T18:01:01.786Z,19.10
2018-09-01T18:03:31.500Z,18.90
2018-09-01T18:06:00.723Z,18.70
2018-09-01T18:08:30.276Z,18.50
2018-09-01T18:11:00.481Z,18.40
2018-09-01T18:13:30.076Z,18.40
2018-09-01T18:15:59.575Z,18.30
2018-09-01T18:18:28.865Z,18.20
2018-09-01T18:20:58.240Z,18.20
2018-09-01T18:23:27.532Z,18.10
2018-09-01T18:25:56.805Z,18.00
2018-09-01T18:28:25.907Z,18.00
2018-09-01T18:30:55.291Z,17.90
2018-09-01T18:33:25.575Z,17.90
2018-09-01T18:35:55.057Z,17.90
2018-09-01T18:38:24.610Z,17.90
2018-09-01T18:40:54.414Z,17.90
2018-09-01T18:43:24.191Z,17.90
2018-09-01T18:45:53.837Z,17.90
2018-09-01T18:48:23.387Z,17.70
2018-09-01T18:50:52.838Z,17.70
2018-09-01T18:53:22.104Z,17.70
2018-09-01T18:55:51.756Z,17.60
2018-09-01T18:58:21.290Z,17.60
2018-09-01T19:00:50.676Z,17.50
2018-09-01T19:03:20.564Z,17.50
2018-09-01T19:05:49.873Z,17.50
2018-09-01T19:08:19.464Z,17.50
2018-09-01T19:10:49.696Z,17.40
2018-09-01T19:13:19.017Z,17.30
2018-09-01T19:15:48.371Z,17.30
2018-09-01T19:18:17.752Z,17.20
2018-09-01T19:20:47.215Z,17.10
2018-09-01T19:23:16.655Z,17.10
2018-09-01T19:25:45.920Z,17.00
2018-09-01T19:28:15.342Z,17.00
2018-09-01T19:30:44.833Z,17.00
2018-09-01T19:33:14.255Z,17.00
2018-09-01T19:35:43.962Z,17.00
2018-09-01T19:38:13.476Z,16.90
2018-09-01T19:40:43.318Z,16.90
2018-09-01T19:43:13.088Z,16.90
2018-09-01T19:45:42.361Z,16.90
2018-09-01T19:48:11.509Z,16.80
2018-09-01T19:50:41.162Z,16.70
2018-09-01T19:53:10.476Z,16.80
2018-09-01T19:55:39.760Z,16.70
2018-09-01T19:58:09.216Z,16.70
2018-09-01T20:00:38.532Z,16.70
2018-09-01T20:03:08.067Z,16.60
2018-09-01T20:05:38.339Z,16.60
2018-09-01T20:08:07.785Z,16.70
2018-09-01T20:10:36.740Z,16.60
2018-09-01T20:13:06.308Z,16.60
2018-09-01T20:15:36.114Z,16.60
2018-09-01T20:18:05.384Z,16.70
2018-09-01T20:20:34.967Z,16.50
2018-09-01T20:23:04.886Z,16.60
2018-09-01T20:25:34.959Z,16.50
2018-09-01T20:28:04.353Z,16.50
2018-09-01T20:30:33.370Z,16.40
2018-09-01T20:33:02.884Z,16.30
2018-09-01T20:35:37.465Z,16.30
2018-09-01T20:38:06.867Z,16.20
2018-09-01T20:40:35.988Z,16.20
2018-09-01T20:43:05.378Z,16.20
2018-09-01T20:45:34.861Z,16.20
2018-09-01T20:48:04.653Z,16.20
2018-09-01T20:50:34.245Z,16.20
2018-09-01T20:53:05.213Z,16.20
2018-09-01T20:55:34.474Z,16.20
2018-09-01T20:58:04.088Z,16.20
2018-09-01T21:00:33.361Z,16.20
2018-09-01T21:03:02.841Z,16.30
2018-09-01T21:05:32.791Z,16.30
2018-09-01T21:08:02.342Z,16.30
2018-09-01T21:10:31.683Z,16.30
2018-09-01T21:13:01.129Z,16.20
2018-09-01T21:15:30.427Z,16.10
2018-09-01T21:17:59.715Z,16.10
2018-09-01T21:20:28.983Z,16.00
2018-09-01T21:22:58.227Z,15.80
2018-09-01T21:25:27.262Z,15.80
2018-09-01T21:27:56.474Z,15.60
2018-09-01T21:30:25.736Z,15.60
2018-09-01T21:32:55.455Z,15.60
2018-09-01T21:35:25.661Z,15.60
2018-09-01T21:37:55.453Z,15.60
2018-09-01T21:40:24.760Z,15.50
2018-09-01T21:42:54.449Z,15.50
2018-09-01T21:45:23.776Z,15.50
2018-09-01T21:47:54.377Z,15.40
2018-09-01T21:50:24.055Z,15.30
2018-09-01T21:52:53.630Z,15.30
2018-09-01T21:55:22.972Z,15.20
2018-09-01T21:57:52.047Z,15.10
2018-09-01T22:00:21.334Z,15.10
2018-09-01T22:02:50.431Z,15.10
2018-09-01T22:05:19.873Z,15.20
2018-09-01T22:07:49.387Z,15.10
2018-09-01T22:10:18.690Z,15.10
2018-09-01T22:12:47.837Z,15.10
2018-09-01T22:15:17.743Z,15.10
2018-09-01T22:17:46.812Z,14.90
2018-09-01T22:20:16.100Z,14.90
2018-09-01T22:22:45.309Z,14.80
2018-09-01T22:25:14.779Z,14.90
2018-09-01T22:27:44.516Z,14.80
2018-09-01T22:30:13.653Z,14.90
2018-09-01T22:32:42.885Z,14.90
2018-09-01T22:35:12.030Z,14.90
2018-09-01T22:37:41.408Z,15.00
2018-09-01T22:40:10.776Z,15.00
2018-09-01T22:42:40.153Z,15.00
2018-09-01T22:45:09.313Z,15.00
2018-09-01T22:47:39.228Z,15.00
2018-09-01T22:50:08.454Z,15.00
2018-09-01T22:52:37.764Z,15.00
2018-09-01T22:55:06.951Z,15.00
2018-09-01T22:57:36.167Z,15.00
2018-09-01T23:00:05.932Z,15.00
2018-09-01T23:02:35.257Z,15.10
2018-09-01T23:05:04.322Z,15.20
2018-09-01T23:07:33.756Z,15.20
2018-09-01T23:10:03.053Z,15.20
2018-09-01T23:12:32.205Z,15.20
2018-09-01T23:15:01.827Z,15.10
2018-09-01T23:17:31.195Z,15.10
2018-09-01T23:20:00.469Z,15.10
2018-09-01T23:22:29.811Z,15.00
2018-09-01T23:24:59.088Z,15.00
2018-09-01T23:27:28.532Z,15.00
2018-09-01T23:29:57.712Z,15.00
2018-09-01T23:32:26.840Z,14.90
2018-09-01T23:34:56.087Z,14.90
2018-09-01T23:37:26.356Z,14.90
2018-09-01T23:39:55.743Z,14.80
2018-09-01T23:42:24.808Z,14.90
2018-09-01T23:44:54.109Z,14.90
2018-09-01T23:47:23.838Z,14.90
2018-09-01T23:49:53.377Z,14.90
2018-09-01T23:52:22.444Z,14.80
2018-09-01T23:54:51.657Z,14.90
2018-09-01T23:57:20.821Z,15.00
2018-09-01T23:59:50.367Z,15.00
